Time;durP1;ratioP1;P1;durP2;ratioP2;P2;SDS_P1;SDS_P2;PMS_P1;PMS_P2;Temp;Humidity;BMP_temperature;BMP_pressure;BME280_temperature;BME280_humidity;BME280_pressure;Samples;Min_cycle;Max_cycle;Signal;HPM_P1;HPM_P2
2023/01/02 00:00:23;;;;;;;9.90;5.33;;;13.40;1.00;;;;;;5044303;28;21009;-79
2023/01/02 00:02:53;;;;;;;5.80;5.20;;;13.40;1.00;;;;;;5043496;28;20537;-79
2023/01/02 00:05:20;;;;;;;7.97;5.77;;;13.30;1.00;;;;;;5054678;28;20520;-78
2023/01/02 00:07:48;;;;;;;7.50;6.10;;;13.30;1.00;;;;;;5049220;28;20487;-79
2023/01/02 00:10:18;;;;;;;10.33;5.90;;;13.30;1.00;;;;;;5047757;28;20965;-79
2023/01/02 00:12:45;;;;;;;7.97;6.20;;;13.20;1.00;;;;;;5051886;28;20466;-80
2023/01/02 00:15:14;;;;;;;8.10;6.23;;;13.20;1.00;;;;;;5052537;28;20499;-79
2023/01/02 00:17:41;;;;;;;8.53;6.10;;;13.20;1.00;;;;;;5049634;28;20537;-80
2023/01/02 00:20:09;;;;;;;6.23;5.47;;;13.10;1.00;;;;;;5051443;28;20517;-78
2023/01/02 00:22:36;;;;;;;7.07;5.47;;;13.10;1.00;;;;;;5054393;28;20494;-79
2023/01/02 00:25:03;;;;;;;7.67;5.57;;;13.10;1.00;;;;;;5051234;28;20455;-80
2023/01/02 00:27:30;;;;;;;5.67;5.03;;;13.10;1.00;;;;;;5046282;28;20464;-79
2023/01/02 00:29:59;;;;;;;13.70;5.73;;;13.00;1.00;;;;;;5044052;28;21374;-78
2023/01/02 00:32:28;;;;;;;10.40;5.47;;;13.00;1.00;;;;;;5047946;28;20459;-77
2023/01/02 00:34:57;;;;;;;7.07;4.87;;;13.00;1.00;;;;;;5044009;28;20459;-79
2023/01/02 00:37:24;;;;;;;13.27;6.23;;;13.00;1.00;;;;;;5043191;28;20478;-78
2023/01/02 00:39:51;;;;;;;7.27;5.80;;;13.00;1.00;;;;;;5047019;28;20492;-79
2023/01/02 00:42:18;;;;;;;8.10;5.60;;;13.00;1.00;;;;;;5052854;28;20461;-78
2023/01/02 00:44:45;;;;;;;6.23;5.63;;;13.00;1.00;;;;;;5046691;28;20462;-79
2023/01/02 00:47:12;;;;;;;12.83;5.67;;;13.00;1.00;;;;;;5036931;28;21120;-79
2023/01/02 00:49:41;;;;;;;6.83;5.30;;;13.00;1.00;;;;;;5048942;28;20431;-80
2023/01/02 00:52:08;;;;;;;11.47;6.37;;;13.00;1.00;;;;;;5058097;28;20463;-80
2023/01/02 00:54:39;;;;;;;6.33;5.27;;;13.00;1.00;;;;;;5062167;28;20447;-80
2023/01/02 00:57:06;;;;;;;7.63;4.97;;;13.10;1.00;;;;;;5055881;28;20897;-80
2023/01/02 00:59:38;;;;;;;8.07;5.53;;;13.10;1.00;;;;;;5056436;28;20460;-80
2023/01/02 01:02:05;;;;;;;7.10;5.27;;;13.10;1.00;;;;;;5057266;28;20564;-78
2023/01/02 01:04:39;;;;;;;7.07;5.20;;;13.20;1.00;;;;;;5057255;28;20542;-81
2023/01/02 01:07:10;;;;;;;6.70;5.30;;;13.20;1.00;;;;;;5050167;28;21328;-77
2023/01/02 01:09:40;;;;;;;7.00;6.10;;;13.20;1.00;;;;;;5055441;28;20426;-77
2023/01/02 01:12:08;;;;;;;9.50;5.77;;;13.30;1.00;;;;;;5056396;28;20467;-79
2023/01/02 01:14:40;;;;;;;6.97;5.17;;;13.30;1.00;;;;;;5052883;28;20429;-77
2023/01/02 01:17:09;;;;;;;6.37;5.77;;;13.20;1.00;;;;;;5056292;28;20978;-80
2023/01/02 01:19:39;;;;;;;9.00;6.47;;;13.30;1.00;;;;;;5054051;28;20412;-81
2023/01/02 01:22:08;;;;;;;6.53;5.10;;;13.30;1.00;;;;;;5050345;28;20463;-79
2023/01/02 01:24:40;;;;;;;10.30;6.07;;;13.30;1.00;;;;;;5055437;28;20423;-78
2023/01/02 01:27:07;;;;;;;8.93;5.33;;;13.30;1.00;;;;;;5050313;28;20467;-80
2023/01/02 01:29:39;;;;;;;10.50;5.53;;;13.20;1.00;;;;;;5051581;28;20472;-81
2023/01/02 01:32:06;;;;;;;6.73;4.83;;;13.10;1.00;;;;;;5049970;28;20618;-80
2023/01/02 01:34:38;;;;;;;9.27;5.67;;;13.20;1.00;;;;;;5051311;28;20468;-80
2023/01/02 01:37:07;;;;;;;7.97;4.90;;;13.20;1.00;;;;;;5049274;28;20498;-80
2023/01/02 01:39:39;;;;;;;9.73;6.07;;;13.20;1.00;;;;;;5053040;28;20459;-79
2023/01/02 01:42:06;;;;;;;8.93;5.03;;;13.20;1.00;;;;;;5052456;28;20475;-82
2023/01/02 01:44:49;;;;;;;5.20;4.63;;;13.30;1.00;;;;;;5050214;28;20465;-81
2023/01/02 01:47:22;;;;;;;7.77;5.43;;;13.30;1.00;;;;;;5043442;28;20488;-81
2023/01/02 01:49:53;;;;;;;6.27;5.30;;;13.40;1.00;;;;;;5046046;28;20468;-81
2023/01/02 01:52:24;;;;;;;10.30;5.70;;;13.40;1.00;;;;;;5051126;28;20526;-81
2023/01/02 01:55:06;;;;;;;7.20;5.30;;;13.50;1.00;;;;;;5046200;28;20479;-81
2023/01/02 01:57:39;;;;;;;11.80;5.70;;;13.40;1.00;;;;;;5042144;28;21053;-81
2023/01/02 02:00:08;;;;;;;5.43;4.53;;;13.40;1.00;;;;;;5045152;28;20442;-79
2023/01/02 02:02:36;;;;;;;7.20;5.50;;;13.30;1.00;;;;;;5044757;28;20468;-80
2023/01/02 02:05:11;;;;;;;6.07;5.47;;;13.30;1.00;;;;;;5045545;28;20456;-78
2023/01/02 02:07:47;;;;;;;6.80;4.73;;;13.20;1.00;;;;;;5049622;28;20475;-80
2023/01/02 02:10:15;;;;;;;7.37;5.60;;;13.20;1.00;;;;;;5047967;28;20550;-80
2023/01/02 02:12:42;;;;;;;6.33;4.23;;;13.20;1.00;;;;;;5053389;28;20536;-80
2023/01/02 02:15:12;;;;;;;9.23;4.90;;;13.20;1.00;;;;;;5060011;28;20402;-79
2023/01/02 02:17:53;;;;;;;6.30;5.70;;;13.20;1.00;;;;;;5052956;28;21191;-80
2023/01/02 02:20:33;;;;;;;6.60;5.77;;;13.20;1.00;;;;;;5060251;28;20516;-81
2023/01/02 02:23:40;;;;;;;6.27;4.40;;;13.20;1.00;;;;;;5059122;28;20464;-80
2023/01/02 02:26:35;;;;;;;6.60;4.90;;;13.20;1.00;;;;;;5048574;28;20431;-80
2023/01/02 02:29:37;;;;;;;5.30;4.80;;;13.20;1.00;;;;;;5055852;28;20428;-80
2023/01/02 02:32:20;;;;;;;7.80;4.87;;;13.10;1.00;;;;;;5051911;28;20450;-80
2023/01/02 02:34:59;;;;;;;7.33;4.80;;;13.10;1.00;;;;;;5056966;28;20435;-80
2023/01/02 02:37:37;;;;;;;6.80;5.17;;;13.20;1.00;;;;;;5060516;28;20532;-79
2023/01/02 02:40:18;;;;;;;6.20;4.60;;;13.20;1.00;;;;;;5059001;28;20478;-81
2023/01/02 02:42:58;;;;;;;7.73;5.00;;;13.20;1.00;;;;;;5055392;28;20449;-80
2023/01/02 02:45:35;;;;;;;7.93;4.90;;;13.20;1.00;;;;;;5055578;28;20421;-80
2023/01/02 02:48:13;;;;;;;5.67;4.53;;;13.30;1.00;;;;;;5053451;28;20498;-78
2023/01/02 02:50:49;;;;;;;6.50;4.27;;;13.30;1.00;;;;;;5055575;28;20482;-80
2023/01/02 02:53:20;;;;;;;6.77;5.07;;;13.30;1.00;;;;;;5051959;28;20431;-80
2023/01/02 02:55:53;;;;;;;7.73;5.47;;;13.30;1.00;;;;;;5049879;28;20464;-80
2023/01/02 02:58:22;;;;;;;6.43;4.33;;;13.30;1.00;;;;;;5050667;28;20459;-78
2023/01/02 03:00:49;;;;;;;7.10;4.93;;;13.30;1.00;;;;;;5056981;28;20451;-77
2023/01/02 03:03:26;;;;;;;6.37;4.60;;;13.40;1.00;;;;;;5054749;28;20436;-80
2023/01/02 03:06:19;;;;;;;5.33;4.43;;;13.40;1.00;;;;;;5049828;28;20553;-79
2023/01/02 03:09:00;;;;;;;6.33;4.70;;;13.40;1.00;;;;;;5050554;28;20431;-79
2023/01/02 03:11:44;;;;;;;6.80;4.90;;;13.40;1.00;;;;;;5056309;28;20501;-78
2023/01/02 03:14:21;;;;;;;7.57;4.87;;;13.50;1.00;;;;;;5053741;28;20511;-79
2023/01/02 03:17:02;;;;;;;6.20;4.80;;;13.50;1.00;;;;;;5055597;28;20506;-79
2023/01/02 03:19:41;;;;;;;8.90;4.93;;;13.50;1.00;;;;;;5052441;28;20408;-79
2023/01/02 03:22:23;;;;;;;5.50;4.27;;;13.50;1.00;;;;;;5056254;28;20493;-78
2023/01/02 03:24:58;;;;;;;5.13;4.63;;;13.40;1.00;;;;;;5055987;28;20440;-81
2023/01/02 03:27:32;;;;;;;10.00;4.83;;;13.40;1.00;;;;;;5055729;28;21408;-81
2023/01/02 03:30:04;;;;;;;5.03;4.50;;;13.40;1.00;;;;;;5055681;28;20415;-79
2023/01/02 03:32:39;;;;;;;8.00;4.67;;;13.40;1.00;;;;;;5052027;28;20467;-80
2023/01/02 03:35:13;;;;;;;7.47;4.97;;;13.40;1.00;;;;;;5062784;28;21305;-81
2023/01/02 03:37:46;;;;;;;6.43;4.37;;;13.40;1.00;;;;;;5051129;28;20479;-81
2023/01/02 03:40:22;;;;;;;5.90;4.53;;;13.40;1.00;;;;;;5049511;28;21039;-79
2023/01/02 03:42:58;;;;;;;7.40;4.97;;;13.40;1.00;;;;;;5048056;28;20449;-78
2023/01/02 03:45:30;;;;;;;6.30;5.10;;;13.40;1.00;;;;;;5050731;28;21566;-78
2023/01/02 03:48:04;;;;;;;5.73;4.80;;;13.40;1.00;;;;;;5047047;28;20494;-82
2023/01/02 03:50:42;;;;;;;5.37;4.83;;;13.40;1.00;;;;;;5049258;28;20975;-78
2023/01/02 03:53:09;;;;;;;8.73;5.70;;;13.40;1.00;;;;;;5050931;28;21635;-81
2023/01/02 03:55:42;;;;;;;4.87;4.17;;;13.40;1.00;;;;;;5050077;28;20438;-82
2023/01/02 03:58:22;;;;;;;6.00;4.30;;;13.40;1.00;;;;;;5050979;28;20897;-79
2023/01/02 04:01:03;;;;;;;7.60;4.87;;;13.40;1.00;;;;;;5050024;28;20455;-79
2023/01/02 04:03:40;;;;;;;7.13;5.00;;;13.30;1.00;;;;;;5052778;28;20463;-79
2023/01/02 04:06:13;;;;;;;7.70;5.13;;;13.40;1.00;;;;;;5056180;28;20466;-81
2023/01/02 04:08:45;;;;;;;7.03;5.27;;;13.40;1.00;;;;;;5051154;28;20497;-81
2023/01/02 04:11:17;;;;;;;5.00;4.50;;;13.40;1.00;;;;;;5048321;28;20491;-82
2023/01/02 04:13:48;;;;;;;8.00;4.77;;;13.40;1.00;;;;;;5052701;28;20467;-80
2023/01/02 04:16:20;;;;;;;5.40;4.90;;;13.40;1.00;;;;;;5055078;28;20455;-81
2023/01/02 04:18:50;;;;;;;5.40;4.90;;;13.40;1.00;;;;;;5053490;28;20925;-80
2023/01/02 04:21:24;;;;;;;7.90;5.87;;;13.40;1.00;;;;;;5054698;28;20455;-80
2023/01/02 04:23:57;;;;;;;7.90;5.00;;;13.40;1.00;;;;;;5059268;28;20480;-81
2023/01/02 04:26:29;;;;;;;5.70;5.07;;;13.40;1.00;;;;;;5057006;28;20428;-80
2023/01/02 04:28:58;;;;;;;8.30;4.70;;;13.40;1.00;;;;;;5057845;28;20529;-81
2023/01/02 04:31:32;;;;;;;5.90;5.30;;;13.50;1.00;;;;;;5055003;28;20963;-81
2023/01/02 04:34:02;;;;;;;6.43;5.40;;;13.50;1.00;;;;;;5054794;28;21251;-81
2023/01/02 04:36:31;;;;;;;6.07;5.13;;;13.50;1.00;;;;;;5057772;28;20424;-81
2023/01/02 04:38:58;;;;;;;7.83;5.30;;;13.50;1.00;;;;;;5055939;28;20459;-81
2023/01/02 04:41:26;;;;;;;5.77;5.17;;;13.60;1.00;;;;;;5056044;28;20503;-81
2023/01/02 04:43:54;;;;;;;7.10;5.17;;;13.60;1.00;;;;;;5046247;28;20610;-81
2023/01/02 04:46:21;;;;;;;9.47;5.47;;;13.60;1.00;;;;;;5050661;28;20459;-80
2023/01/02 04:48:48;;;;;;;7.17;5.40;;;13.60;1.00;;;;;;5049451;28;20467;-81
2023/01/02 04:51:15;;;;;;;7.57;5.47;;;13.70;1.00;;;;;;5044882;28;20480;-81
2023/01/02 04:53:59;;;;;;;6.13;5.30;;;13.70;1.00;;;;;;5051543;28;20464;-81
2023/01/02 04:56:26;;;;;;;6.50;5.17;;;13.70;1.00;;;;;;5055029;28;20464;-82
2023/01/02 04:58:53;;;;;;;8.27;5.17;;;13.70;1.00;;;;;;5054922;28;20432;-81
2023/01/02 05:01:22;;;;;;;5.87;5.27;;;13.70;1.00;;;;;;5052266;28;20428;-81
2023/01/02 05:03:51;;;;;;;6.53;5.93;;;13.80;1.00;;;;;;5057496;28;20542;-80
2023/01/02 05:06:20;;;;;;;7.67;5.60;;;13.90;1.00;;;;;;5056968;28;20628;-79
2023/01/02 05:08:48;;;;;;;7.33;5.37;;;13.90;1.00;;;;;;5058119;28;20460;-81
2023/01/02 05:11:20;;;;;;;7.03;6.20;;;13.90;1.00;;;;;;5050934;28;20484;-80
2023/01/02 05:13:50;;;;;;;8.43;5.10;;;14.00;1.00;;;;;;5047626;28;20988;-81
2023/01/02 05:16:22;;;;;;;5.20;4.70;;;13.90;1.00;;;;;;5049797;28;20477;-80
2023/01/02 05:18:50;;;;;;;5.50;4.80;;;13.90;1.00;;;;;;5053411;28;20444;-80
2023/01/02 05:24:04;;;;;;;6.53;4.83;;;13.70;1.00;;;;;;5057052;28;20436;-81
2023/01/02 05:26:31;;;;;;;9.07;5.27;;;13.70;1.00;;;;;;5050637;28;20463;-81
2023/01/02 05:28:59;;;;;;;4.70;4.17;;;13.70;1.00;;;;;;5050905;28;20476;-79
2023/01/02 05:31:26;;;;;;;6.90;5.30;;;13.70;1.00;;;;;;5050287;28;20974;-79
2023/01/02 05:33:54;;;;;;;5.93;5.37;;;13.80;1.00;;;;;;5050451;28;20557;-83
2023/01/02 05:36:22;;;;;;;6.83;5.27;;;13.80;1.00;;;;;;5049857;28;20486;-81
2023/01/02 05:38:51;;;;;;;7.53;5.20;;;13.80;1.00;;;;;;5051202;28;20440;-81
2023/01/02 05:41:21;;;;;;;6.93;4.43;;;13.90;1.00;;;;;;5055663;28;20480;-82
2023/01/02 05:43:52;;;;;;;5.77;4.90;;;13.90;1.00;;;;;;5054062;28;20431;-79
2023/01/02 05:46:20;;;;;;;6.53;5.10;;;13.90;1.00;;;;;;5051252;28;20956;-80
2023/01/02 05:48:51;;;;;;;6.20;5.30;;;13.90;1.00;;;;;;5054346;28;20933;-82
2023/01/02 05:51:19;;;;;;;5.33;4.83;;;14.00;1.00;;;;;;5058942;28;20460;-82
2023/01/02 05:53:46;;;;;;;5.00;4.50;;;14.00;1.00;;;;;;5057686;28;20457;-81
2023/01/02 05:56:15;;;;;;;5.33;4.47;;;14.00;1.00;;;;;;5054303;28;20440;-80
2023/01/02 05:58:45;;;;;;;4.93;4.47;;;14.00;1.00;;;;;;5054772;28;20492;-83
2023/01/02 06:01:15;;;;;;;5.73;4.60;;;13.90;1.00;;;;;;5055544;28;20472;-81
2023/01/02 06:03:45;;;;;;;5.57;4.90;;;13.90;1.00;;;;;;5052886;28;20460;-81
2023/01/02 06:06:12;;;;;;;6.60;4.93;;;13.90;1.00;;;;;;5053015;28;20999;-79
2023/01/02 06:08:41;;;;;;;7.00;4.60;;;14.00;1.00;;;;;;5049819;28;20420;-81
2023/01/02 06:11:09;;;;;;;5.80;4.87;;;14.00;1.00;;;;;;5054589;28;20497;-79
2023/01/02 06:13:52;;;;;;;4.40;4.00;;;14.00;1.00;;;;;;5060153;28;20435;-80
2023/01/02 06:16:21;;;;;;;7.37;5.03;;;14.00;1.00;;;;;;5062823;28;20496;-80
2023/01/02 06:18:48;;;;;;;5.20;4.17;;;14.10;1.00;;;;;;5057776;28;20491;-81
2023/01/02 06:21:23;;;;;;;5.63;4.33;;;14.10;1.00;;;;;;5059206;28;20467;-77
2023/01/02 06:23:59;;;;;;;8.63;4.90;;;14.10;1.00;;;;;;5055996;28;20470;-77
2023/01/02 06:26:29;;;;;;;6.33;4.13;;;14.10;1.00;;;;;;5056128;28;20440;-78
2023/01/02 06:29:14;;;;;;;4.67;4.20;;;14.10;1.00;;;;;;5060680;28;20432;-78
2023/01/02 06:31:42;;;;;;;4.93;3.90;;;14.10;1.00;;;;;;5062007;28;20542;-81
2023/01/02 06:34:10;;;;;;;4.83;4.00;;;14.10;1.00;;;;;;5063251;28;20472;-80
2023/01/02 06:36:43;;;;;;;5.07;4.10;;;14.10;1.00;;;;;;5058749;28;20428;-80
2023/01/02 06:39:10;;;;;;;5.73;4.10;;;14.20;1.00;;;;;;5053412;28;21408;-81
2023/01/02 06:41:41;;;;;;;5.67;4.13;;;14.30;1.00;;;;;;5060549;28;20400;-80
2023/01/02 06:44:12;;;;;;;4.70;4.20;;;14.30;1.00;;;;;;5064061;28;20515;-81
2023/01/02 06:46:42;;;;;;;6.83;3.90;;;14.40;1.00;;;;;;5067678;28;20431;-80
2023/01/02 06:49:11;;;;;;;5.30;3.87;;;14.40;1.00;;;;;;5052787;28;20495;-81
2023/01/02 06:51:41;;;;;;;5.07;4.27;;;14.40;1.00;;;;;;5066397;28;20421;-81
2023/01/02 06:54:08;;;;;;;9.30;3.60;;;14.50;1.00;;;;;;5058543;28;20452;-81
2023/01/02 06:56:39;;;;;;;5.27;4.47;;;14.50;1.00;;;;;;5063242;28;20507;-82
2023/01/02 06:59:06;;;;;;;4.20;3.60;;;14.40;1.00;;;;;;5061805;28;20452;-83
2023/01/02 07:01:33;;;;;;;5.80;4.23;;;14.50;1.00;;;;;;5061406;28;21176;-81
2023/01/02 07:04:08;;;;;;;6.50;4.50;;;14.40;1.00;;;;;;5066664;28;20428;-81
2023/01/02 07:06:50;;;;;;;6.10;4.37;;;14.40;1.00;;;;;;5056246;28;20464;-80
2023/01/02 07:09:21;;;;;;;4.43;4.03;;;14.50;1.00;;;;;;5061446;28;20432;-81
2023/01/02 07:11:49;;;;;;;4.27;3.60;;;14.50;1.00;;;;;;5059190;28;20911;-81
2023/01/02 07:14:21;;;;;;;7.13;4.10;;;14.60;1.00;;;;;;5053296;28;20464;-77
2023/01/02 07:16:48;;;;;;;9.07;4.40;;;14.60;1.00;;;;;;5054788;28;20491;-79
2023/01/02 07:19:23;;;;;;;5.43;4.57;;;14.50;1.00;;;;;;5054743;28;20428;-81
2023/01/02 07:21:50;;;;;;;6.10;4.40;;;14.50;1.00;;;;;;5057445;28;20457;-81
2023/01/02 07:24:22;;;;;;;5.30;4.53;;;14.50;1.00;;;;;;5052026;28;20471;-80
2023/01/02 07:26:49;;;;;;;7.70;5.20;;;14.50;1.00;;;;;;5057242;28;20464;-80
2023/01/02 07:29:21;;;;;;;4.97;3.77;;;14.60;1.00;;;;;;5056474;28;20413;-79
2023/01/02 07:31:48;;;;;;;4.23;3.80;;;14.60;1.00;;;;;;5056682;28;20936;-79
2023/01/02 07:34:22;;;;;;;7.20;4.57;;;14.70;1.00;;;;;;5058617;28;20464;-81
2023/01/02 07:36:49;;;;;;;6.13;4.50;;;14.60;1.00;;;;;;5055448;28;20462;-81
2023/01/02 07:39:22;;;;;;;7.77;4.80;;;14.70;1.00;;;;;;5056707;28;20424;-79
2023/01/02 07:41:50;;;;;;;27.13;13.80;;;14.70;1.00;;;;;;5058608;28;20452;-82
2023/01/02 07:44:21;;;;;;;6.50;5.03;;;14.70;1.00;;;;;;5052227;28;20440;-82
2023/01/02 07:46:48;;;;;;;5.47;4.20;;;14.70;1.00;;;;;;5058224;28;20508;-81
2023/01/02 07:49:20;;;;;;;5.30;4.23;;;14.60;1.00;;;;;;5058228;28;20526;-80
2023/01/02 07:51:51;;;;;;;4.20;3.80;;;14.60;1.00;;;;;;5054827;28;20493;-82
2023/01/02 07:54:21;;;;;;;5.40;4.33;;;14.60;1.00;;;;;;5057666;28;20477;-80
2023/01/02 07:56:48;;;;;;;6.23;4.20;;;14.70;1.00;;;;;;5052071;28;20457;-80
2023/01/02 07:59:24;;;;;;;5.93;4.27;;;14.70;1.00;;;;;;5055597;28;20467;-79
2023/01/02 08:01:52;;;;;;;5.10;4.23;;;14.70;1.00;;;;;;5057624;28;21046;-80
2023/01/02 08:04:21;;;;;;;7.83;4.97;;;14.80;1.00;;;;;;5061106;28;20440;-81
2023/01/02 08:06:49;;;;;;;8.90;4.30;;;14.80;1.00;;;;;;5056808;28;20452;-79
2023/01/02 08:09:21;;;;;;;6.40;4.10;;;14.80;1.00;;;;;;5056087;28;20432;-82
2023/01/02 08:11:48;;;;;;;9.83;4.50;;;14.90;1.00;;;;;;5052207;28;21195;-82
2023/01/02 08:14:15;;;;;;;5.40;4.83;;;14.90;1.00;;;;;;5054702;28;20469;-82
2023/01/02 08:16:42;;;;;;;6.03;3.93;;;15.00;1.00;;;;;;5051449;28;20431;-82
2023/01/02 08:19:09;;;;;;;5.57;4.30;;;15.00;1.00;;;;;;5047942;28;20487;-82
2023/01/02 08:21:40;;;;;;;4.20;3.80;;;15.00;1.00;;;;;;5053714;28;20464;-83
2023/01/02 08:24:11;;;;;;;8.07;4.33;;;15.00;1.00;;;;;;5053757;28;20504;-81
2023/01/02 08:26:38;;;;;;;10.77;4.57;;;15.10;1.00;;;;;;5048466;28;20457;-84
2023/01/02 08:29:11;;;;;;;4.53;3.77;;;15.10;1.00;;;;;;5049352;28;21060;-83
2023/01/02 08:31:40;;;;;;;3.93;3.50;;;15.10;1.00;;;;;;5059321;28;20964;-84
2023/01/02 08:34:13;;;;;;;4.93;3.50;;;15.10;1.00;;;;;;5059750;28;20427;-82
2023/01/02 08:36:40;;;;;;;6.63;4.20;;;15.20;1.00;;;;;;5060794;28;20432;-84
2023/01/02 08:39:12;;;;;;;6.80;4.23;;;15.20;1.00;;;;;;5050109;28;20466;-83
2023/01/02 08:42:00;;;;;;;5.77;4.00;;;15.30;1.00;;;;;;5078034;27;20427;-84
2023/01/02 08:44:44;;;;;;;;;;;;;;;;;;;;;
2023/01/02 08:47:11;;;;;;;7.47;3.70;;;15.40;1.00;;;;;;5062432;28;37724;-84
2023/01/02 08:49:52;;;;;;;5.97;3.80;;;15.50;1.00;;;;;;5078688;28;20432;-85
2023/01/02 08:52:22;;;;;;;7.23;4.17;;;15.50;1.00;;;;;;5059850;28;20437;-85
2023/01/02 08:55:04;;;;;;;6.30;4.27;;;15.50;1.00;;;;;;5063079;28;20430;-85
2023/01/02 08:57:42;;;;;;;4.60;3.43;;;15.50;1.00;;;;;;5050269;28;20425;-83
2023/01/02 09:00:41;;;;;;;6.00;3.80;;;15.50;1.00;;;;;;5016413;28;21048;-85
2023/01/02 09:03:21;;;;;;;7.67;3.70;;;15.50;1.00;;;;;;5020809;28;20410;-84
2023/01/02 09:06:05;;;;;;;;;;;;;;;;;;;;;
2023/01/02 09:08:32;;;;;;;5.53;3.53;;;15.60;1.00;;;;;;5006326;28;49974;-84
2023/01/02 09:11:21;;;;;;;5.30;3.50;;;15.60;1.00;;;;;;5020207;28;20490;-84
2023/01/02 09:13:52;;;;;;;5.33;3.20;;;15.60;1.00;;;;;;5019924;28;20415;-84
2023/01/02 09:16:22;;;;;;;6.10;3.10;;;15.70;1.00;;;;;;5016539;28;20461;-84
2023/01/02 09:18:53;;;;;;;7.57;3.87;;;15.80;1.00;;;;;;5012722;28;20488;-84
2023/01/02 09:21:30;;;;;;;6.50;3.20;;;15.80;1.00;;;;;;5015930;28;21304;-84
2023/01/02 09:24:10;;;;;;;6.07;3.53;;;15.80;1.00;;;;;;5019514;28;20459;-84
2023/01/02 09:26:42;;;;;;;5.90;3.17;;;15.80;1.00;;;;;;5010852;28;20531;-83
2023/01/02 09:29:20;;;;;;;4.13;3.30;;;15.80;1.00;;;;;;5017834;28;20451;-84
2023/01/02 09:32:01;;;;;;;6.70;3.63;;;15.80;1.00;;;;;;5022730;28;20444;-85
2023/01/02 09:34:34;;;;;;;4.57;3.70;;;15.90;1.00;;;;;;5015570;28;20956;-83
2023/01/02 09:37:10;;;;;;;5.17;3.90;;;15.90;1.00;;;;;;5015900;28;20560;-84
2023/01/02 09:39:38;;;;;;;5.13;3.40;;;15.90;1.00;;;;;;5017475;28;20494;-83
2023/01/02 09:42:33;;;;;;;4.70;3.23;;;15.90;1.00;;;;;;5016355;28;20449;-83
2023/01/02 09:45:22;;;;;;;5.80;3.73;;;15.90;1.00;;;;;;5015188;28;20440;-83
2023/01/02 09:47:59;;;;;;;4.20;3.13;;;16.00;1.00;;;;;;5018542;28;20454;-83
2023/01/02 09:51:03;;;;;;;5.70;3.60;;;16.00;1.00;;;;;;5011812;28;21320;-84
2023/01/02 09:53:33;;;;;;;7.37;3.17;;;16.10;1.00;;;;;;5006477;28;20494;-83
2023/01/02 09:56:11;;;;;;;4.07;3.30;;;16.10;1.00;;;;;;5025997;28;20554;-83
2023/01/02 09:58:53;;;;;;;4.50;3.27;;;16.10;1.00;;;;;;5033456;28;20497;-84
2023/01/02 10:01:34;;;;;;;4.00;2.87;;;16.10;1.00;;;;;;5036190;28;20470;-80
2023/01/02 10:04:20;;;;;;;4.47;3.20;;;16.20;1.00;;;;;;5036272;28;20968;-84
2023/01/02 10:07:00;;;;;;;4.77;3.50;;;16.30;1.00;;;;;;5036296;28;20458;-83
2023/01/02 10:09:40;;;;;;;7.00;3.33;;;16.40;1.00;;;;;;5030694;28;20469;-83
2023/01/02 10:12:21;;;;;;;5.17;3.20;;;16.40;1.00;;;;;;5035315;28;20419;-81
2023/01/02 10:14:57;;;;;;;4.50;3.90;;;16.40;1.00;;;;;;5037969;28;20439;-82
2023/01/02 10:17:41;;;;;;;4.60;2.97;;;16.60;1.00;;;;;;5036689;28;20485;-85
2023/01/02 10:20:32;;;;;;;4.60;3.33;;;16.60;1.00;;;;;;5034680;28;20432;-81
2023/01/02 10:23:02;;;;;;;3.70;3.20;;;16.60;1.00;;;;;;5037488;28;20460;-81
2023/01/02 10:25:36;;;;;;;5.53;4.60;;;16.60;1.00;;;;;;5027799;28;20458;-88
2023/01/02 10:28:17;;;;;;;6.13;3.17;;;16.60;1.00;;;;;;5052138;28;20433;-85
2023/01/02 10:30:53;;;;;;;6.33;5.07;;;16.70;1.00;;;;;;5039751;28;21225;-82
2023/01/02 10:33:31;;;;;;;5.93;3.53;;;16.80;1.00;;;;;;5042147;28;20456;-84
2023/01/02 10:36:01;;;;;;;6.37;3.50;;;16.90;1.00;;;;;;5041044;28;20464;-84
2023/01/02 10:38:37;;;;;;;8.23;3.47;;;16.90;1.00;;;;;;5031765;28;22218;-81
2023/01/02 10:41:13;;;;;;;6.03;2.77;;;16.90;1.00;;;;;;5030313;28;20487;-79
2023/01/02 10:43:40;;;;;;;4.33;3.30;;;16.70;1.00;;;;;;5030114;28;20986;-84
2023/01/02 10:46:12;;;;;;;6.80;3.17;;;16.70;1.00;;;;;;5032263;28;20439;-79
2023/01/02 10:48:41;;;;;;;4.20;3.47;;;16.60;1.00;;;;;;5035009;28;20519;-81
2023/01/02 10:51:14;;;;;;;6.03;3.03;;;16.60;1.00;;;;;;5033121;28;21188;-80
2023/01/02 10:54:13;;;;;;;4.83;3.17;;;16.60;1.00;;;;;;5042476;28;20415;-85
2023/01/02 10:56:56;;;;;;;6.40;3.50;;;16.60;1.00;;;;;;5036793;28;21041;-81
2023/01/02 10:59:33;;;;;;;5.83;3.00;;;16.50;1.00;;;;;;5044654;28;20464;-83
2023/01/02 11:02:01;;;;;;;3.70;2.70;;;16.50;1.00;;;;;;5039963;28;21751;-87
2023/01/02 11:04:44;;;;;;;4.20;3.23;;;16.50;1.00;;;;;;5034990;28;20972;-87
2023/01/02 11:07:33;;;;;;;4.50;3.17;;;16.60;1.00;;;;;;5038256;28;20490;-86
2023/01/02 11:10:04;;;;;;;4.30;3.13;;;16.60;1.00;;;;;;5035672;28;20439;-87
2023/01/02 11:13:04;;;;;;;7.03;3.20;;;16.60;1.00;;;;;;5044844;28;20480;-86
2023/01/02 11:15:59;;;;;;;5.80;3.40;;;16.60;1.00;;;;;;5032825;28;20518;-85
2023/01/02 11:18:44;;;;;;;7.00;4.10;;;16.70;1.00;;;;;;5028254;28;20458;-86
2023/01/02 11:21:23;;;;;;;7.40;3.70;;;16.60;1.00;;;;;;5030817;28;21003;-86
2023/01/02 11:24:04;;;;;;;7.00;2.80;;;16.60;1.00;;;;;;5031180;28;20497;-83
2023/01/02 11:30:02;;;;;;;3.70;3.00;;;16.00;1.00;;;;;;5025032;28;20478;-83
2023/01/02 11:32:42;;;;;;;4.73;3.67;;;15.60;1.00;;;;;;5032896;28;20428;-87
2023/01/02 11:35:43;;;;;;;5.47;3.50;;;15.30;1.00;;;;;;5026253;28;21385;-85
2023/01/02 11:38:34;;;;;;;6.27;3.40;;;15.20;1.00;;;;;;5035173;28;20453;-86
2023/01/02 11:41:04;;;;;;;7.23;3.37;;;15.10;1.00;;;;;;5034441;28;20616;-88
2023/01/02 11:43:51;;;;;;;5.50;4.30;;;15.10;1.00;;;;;;5036664;28;20553;-86
2023/01/02 11:46:43;;;;;;;5.07;3.10;;;15.10;1.00;;;;;;5031264;28;20500;-86
2023/01/02 11:49:25;;;;;;;5.57;3.63;;;15.30;1.00;;;;;;5024656;28;20477;-87
2023/01/02 11:52:13;;;;;;;6.70;3.97;;;15.40;1.00;;;;;;5050572;28;20458;-85
2023/01/02 11:55:00;;;;;;;5.63;3.40;;;15.40;1.00;;;;;;5029367;28;20542;-85
2023/01/02 11:57:55;;;;;;;17.33;12.73;;;15.30;1.00;;;;;;5027395;28;20974;-86
2023/01/02 12:03:33;;;;;;;4.83;4.30;;;15.40;1.00;;;;;;5032188;28;20513;-87
2023/01/02 12:06:24;;;;;;;6.70;4.30;;;15.50;1.00;;;;;;5031222;28;20490;-85
2023/01/02 12:09:13;;;;;;;10.00;5.10;;;15.70;1.00;;;;;;5029778;28;20445;-86
2023/01/02 12:12:00;;;;;;;6.93;4.33;;;15.80;1.00;;;;;;5033960;28;20443;-86
2023/01/02 12:15:03;;;;;;;5.27;3.33;;;15.90;1.00;;;;;;5028587;28;20845;-84
2023/01/02 12:18:01;;;;;;;5.17;3.33;;;16.00;1.00;;;;;;5035877;28;20428;-85
2023/01/02 12:21:04;;;;;;;4.33;3.10;;;16.10;1.00;;;;;;5029329;28;20456;-86
2023/01/02 12:24:01;;;;;;;5.80;3.30;;;16.20;1.00;;;;;;5028172;28;20520;-87
2023/01/02 12:26:54;;;;;;;7.53;4.27;;;16.20;1.00;;;;;;5024621;28;20498;-85
2023/01/02 12:30:02;;;;;;;8.00;4.20;;;16.20;1.00;;;;;;5028523;28;20447;-82
2023/01/02 12:32:53;;;;;;;6.00;4.23;;;16.10;1.00;;;;;;5029544;28;20459;-84
2023/01/02 12:35:53;;;;;;;5.50;3.40;;;16.10;1.00;;;;;;5028114;28;20435;-85
2023/01/02 12:38:30;;;;;;;5.83;4.13;;;16.00;1.00;;;;;;5033441;28;21475;-84
2023/01/02 12:41:11;;;;;;;5.60;4.00;;;16.00;1.00;;;;;;5031879;28;20433;-84
2023/01/02 12:44:11;;;;;;;6.53;4.10;;;15.90;1.00;;;;;;5024070;28;20474;-84
2023/01/02 12:47:06;;;;;;;3.57;2.73;;;15.80;1.00;;;;;;5022287;28;20581;-84
2023/01/02 12:50:01;;;;;;;7.63;3.53;;;15.60;1.00;;;;;;5012335;28;20440;-83
2023/01/02 12:52:40;;;;;;;4.37;3.50;;;15.40;1.00;;;;;;5029505;28;20512;-84
2023/01/02 12:55:23;;;;;;;4.33;3.90;;;15.30;1.00;;;;;;5035280;28;20482;-83
2023/01/02 12:57:58;;;;;;;5.20;3.10;;;15.10;1.00;;;;;;5026287;28;20528;-83
2023/01/02 13:00:54;;;;;;;4.97;3.70;;;14.80;1.00;;;;;;5028318;28;20981;-81
2023/01/02 13:03:48;;;;;;;6.73;3.40;;;14.60;1.00;;;;;;5027866;28;20442;-83
2023/01/02 13:06:20;;;;;;;6.10;2.87;;;14.20;1.00;;;;;;5026605;28;20483;-82
2023/01/02 13:08:56;;;;;;;7.30;3.10;;;14.00;1.00;;;;;;5034580;28;20461;-83
2023/01/02 13:11:31;;;;;;;6.73;3.40;;;13.80;1.00;;;;;;5030627;28;20516;-82
2023/01/02 13:14:02;;;;;;;5.10;3.30;;;13.70;1.00;;;;;;5030089;28;20575;-82
2023/01/02 13:16:34;;;;;;;6.60;3.43;;;13.70;1.00;;;;;;5031350;28;20432;-82
2023/01/02 13:19:17;;;;;;;6.47;3.33;;;13.70;1.00;;;;;;5031883;28;20449;-82
2023/01/02 13:21:52;;;;;;;5.10;3.50;;;13.80;1.00;;;;;;5032102;28;20464;-82
2023/01/02 13:24:32;;;;;;;3.47;2.73;;;13.90;1.00;;;;;;5032814;28;20569;-81
2023/01/02 13:27:02;;;;;;;7.57;3.77;;;14.10;1.00;;;;;;5037143;28;20488;-82
2023/01/02 13:29:41;;;;;;;5.10;3.00;;;14.20;1.00;;;;;;5032415;28;20448;-83
2023/01/02 13:32:15;;;;;;;6.13;3.33;;;14.40;1.00;;;;;;5027966;28;20519;-86
2023/01/02 13:34:55;;;;;;;5.50;3.13;;;14.60;1.00;;;;;;5027715;28;20459;-83
2023/01/02 13:37:25;;;;;;;5.17;3.90;;;14.90;1.00;;;;;;5029712;28;20560;-82
2023/01/02 13:39:57;;;;;;;5.20;2.77;;;15.10;1.00;;;;;;5033876;28;20505;-85
2023/01/02 13:45:23;;;;;;;5.77;3.00;;;15.30;1.00;;;;;;5032758;28;21030;-84
2023/01/02 13:47:53;;;;;;;5.70;3.40;;;15.30;1.00;;;;;;5035859;28;20470;-83
2023/01/02 13:50:28;;;;;;;4.20;3.13;;;15.30;1.00;;;;;;5034147;28;20488;-82